Time;durP1;ratioP1;P1;durP2;ratioP2;P2;SDS_P1;SDS_P2;PMS_P1;PMS_P2;Temp;Humidity;BMP_temperature;BMP_pressure;BME280_temperature;BME280_humidity;BME280_pressure;Samples;Min_cycle;Max_cycle;Signal;HPM_P1;HPM_P2
2022/06/02 00:00:05;;;;;;;2.20;2.00;;;11.10;95.30;;;;;;4197592;28;20187;-69
2022/06/02 00:02:40;;;;;;;4.97;2.60;;;11.10;95.10;;;;;;4197652;28;20232;-69
2022/06/02 00:05:08;;;;;;;2.37;2.17;;;11.20;94.90;;;;;;4197393;28;20206;-69
2022/06/02 00:07:37;;;;;;;3.77;2.60;;;11.20;94.80;;;;;;4197124;28;20228;-69
2022/06/02 00:10:20;;;;;;;3.70;2.63;;;11.10;95.10;;;;;;4197090;28;20590;-69
2022/06/02 00:12:27;;;;;;;3.83;2.63;;;11.20;94.90;;;;;;4197352;28;20238;-69
2022/06/02 00:14:48;;;;;;;2.90;2.50;;;11.10;95.40;;;;;;4197110;28;20205;-69
2022/06/02 00:17:11;;;;;;;2.53;2.30;;;11.10;95.60;;;;;;4196699;28;20176;-69
2022/06/02 00:19:35;;;;;;;3.93;2.60;;;11.10;95.90;;;;;;4197192;28;20221;-69
2022/06/02 00:21:46;;;;;;;4.17;2.47;;;11.10;95.80;;;;;;4197105;28;20195;-68
2022/06/02 00:24:14;;;;;;;4.27;2.30;;;11.20;95.80;;;;;;4197184;28;20202;-68
2022/06/02 00:26:40;;;;;;;2.57;2.37;;;11.00;95.30;;;;;;4196557;28;20290;-68
2022/06/02 00:28:44;;;;;;;3.97;2.70;;;10.90;95.90;;;;;;4196825;28;20172;-68
2022/06/02 00:30:55;;;;;;;3.07;2.30;;;10.80;96.00;;;;;;4196994;28;20172;-68
2022/06/02 00:33:11;;;;;;;3.47;2.80;;;10.80;96.60;;;;;;4197255;28;20167;-68
2022/06/02 00:35:15;;;;;;;2.80;2.43;;;10.90;96.40;;;;;;4196828;28;20199;-68
2022/06/02 00:37:28;;;;;;;2.90;2.37;;;10.90;96.20;;;;;;4196286;28;20210;-68
2022/06/02 00:39:31;;;;;;;2.70;2.10;;;10.90;96.00;;;;;;4197009;28;20178;-68
2022/06/02 00:41:53;;;;;;;2.93;2.63;;;10.90;96.10;;;;;;4196911;28;20179;-69
2022/06/02 00:44:12;;;;;;;3.20;2.60;;;10.90;96.10;;;;;;4196769;28;20273;-68
2022/06/02 00:46:30;;;;;;;2.97;2.67;;;10.80;96.30;;;;;;4195790;28;20199;-68
2022/06/02 00:49:10;;;;;;;4.20;2.40;;;10.70;96.30;;;;;;4196838;28;20255;-69
2022/06/02 00:51:17;;;;;;;5.23;3.17;;;10.70;96.70;;;;;;4196746;28;20262;-69
2022/06/02 00:57:30;;;;;;;2.90;2.63;;;10.70;96.70;;;;;;4197005;28;20203;-69
2022/06/02 00:59:31;;;;;;;2.90;2.63;;;10.60;97.00;;;;;;4196742;28;20197;-68
2022/06/02 01:01:34;;;;;;;3.67;2.87;;;10.50;97.20;;;;;;4196515;28;20266;-69
2022/06/02 01:03:43;;;;;;;4.37;2.90;;;10.50;97.30;;;;;;4196437;28;20199;-69
2022/06/02 01:05:59;;;;;;;3.53;2.60;;;10.60;96.90;;;;;;4195832;28;20210;-68
2022/06/02 01:08:38;;;;;;;3.77;2.77;;;10.50;97.10;;;;;;4196165;28;20172;-68
2022/06/02 01:10:47;;;;;;;3.03;2.70;;;10.40;97.50;;;;;;4128825;28;20186;-69
2022/06/02 01:13:10;;;;;;;3.10;2.80;;;10.40;97.60;;;;;;4171695;28;20202;-69
2022/06/02 01:15:29;;;;;;;3.40;2.80;;;10.40;97.70;;;;;;4196183;28;20168;-69
2022/06/02 01:17:51;;;;;;;3.50;2.80;;;10.40;97.70;;;;;;4196172;28;20178;-68
2022/06/02 01:20:11;;;;;;;4.03;2.60;;;10.40;97.70;;;;;;4196160;28;20632;-69
2022/06/02 01:22:40;;;;;;;2.60;2.40;;;10.40;97.90;;;;;;4196309;28;20171;-68
2022/06/02 01:25:02;;;;;;;2.90;2.60;;;10.30;97.80;;;;;;4196157;28;20718;-69
2022/06/02 01:27:15;;;;;;;3.23;2.73;;;10.30;98.00;;;;;;4195705;28;20294;-69
2022/06/02 01:29:37;;;;;;;3.07;2.73;;;10.30;97.90;;;;;;4195192;28;20220;-69
2022/06/02 01:31:59;;;;;;;2.60;2.40;;;10.30;97.70;;;;;;4195694;28;20658;-68
2022/06/02 01:34:25;;;;;;;3.87;2.40;;;10.30;98.00;;;;;;4195524;28;20976;-69
2022/06/02 01:36:49;;;;;;;4.23;2.30;;;10.20;98.00;;;;;;4195684;28;20265;-69
2022/06/02 01:39:08;;;;;;;4.00;2.73;;;10.30;97.90;;;;;;4185452;28;20199;-69
2022/06/02 01:41:21;;;;;;;2.83;2.30;;;10.30;97.90;;;;;;4195957;28;20166;-69
2022/06/02 01:43:25;;;;;;;2.60;2.30;;;10.20;97.80;;;;;;4195874;28;20680;-69
2022/06/02 01:45:37;;;;;;;2.60;2.33;;;10.20;97.70;;;;;;4195207;28;20219;-68
2022/06/02 01:47:42;;;;;;;2.40;2.20;;;10.20;97.40;;;;;;4195956;28;20166;-69
2022/06/02 01:50:12;;;;;;;4.00;2.63;;;10.30;97.40;;;;;;4195470;28;20646;-69
2022/06/02 01:52:23;;;;;;;7.63;3.10;;;10.30;97.20;;;;;;4195626;28;20227;-69
2022/06/02 01:54:38;;;;;;;7.03;3.40;;;10.20;97.00;;;;;;4195724;28;20205;-69
2022/06/02 01:56:57;;;;;;;3.37;2.50;;;10.20;96.90;;;;;;4195379;28;20263;-69
2022/06/02 01:59:10;;;;;;;5.67;2.90;;;10.20;96.50;;;;;;4196021;28;20661;-69
2022/06/02 02:02:04;;;;;;;4.80;2.80;;;10.40;96.30;;;;;;4195730;28;20349;-69
2022/06/02 02:04:29;;;;;;;4.20;2.57;;;10.50;96.10;;;;;;4177145;28;20215;-69
2022/06/02 02:06:42;;;;;;;4.23;2.20;;;10.50;96.30;;;;;;4190087;28;20234;-69
2022/06/02 02:09:19;;;;;;;4.30;2.33;;;10.50;96.10;;;;;;4195592;28;20619;-69
2022/06/02 02:11:34;;;;;;;5.13;2.83;;;10.50;95.70;;;;;;4195491;28;20395;-69
2022/06/02 02:14:21;;;;;;;3.83;2.70;;;10.50;95.60;;;;;;4195689;28;20692;-69
2022/06/02 02:16:47;;;;;;;3.97;2.80;;;10.60;95.00;;;;;;4177323;28;20249;-69
2022/06/02 02:19:09;;;;;;;6.53;2.23;;;10.60;94.80;;;;;;4195429;28;20180;-68
2022/06/02 02:21:28;;;;;;;3.27;2.40;;;10.60;95.00;;;;;;4195428;28;20203;-68
2022/06/02 02:24:02;;;;;;;4.13;2.80;;;10.60;94.90;;;;;;4195375;28;20291;-68
2022/06/02 02:26:28;;;;;;;2.63;2.20;;;10.60;95.10;;;;;;4194647;28;20191;-68
2022/06/02 02:28:50;;;;;;;3.00;2.07;;;10.40;95.60;;;;;;4189064;28;20200;-68
2022/06/02 02:31:25;;;;;;;3.27;2.20;;;10.40;95.90;;;;;;4195354;28;20213;-68
2022/06/02 02:33:42;;;;;;;2.60;2.40;;;10.40;95.70;;;;;;4193754;28;20207;-68
2022/06/02 02:36:02;;;;;;;3.67;2.37;;;10.50;95.00;;;;;;4194384;28;20270;-68
2022/06/02 02:38:16;;;;;;;2.17;1.97;;;10.60;95.10;;;;;;4195214;28;20164;-68
2022/06/02 02:40:51;;;;;;;5.07;2.10;;;10.50;95.00;;;;;;4195384;28;20260;-69
2022/06/02 02:43:06;;;;;;;2.10;1.90;;;10.50;95.00;;;;;;4195881;28;20198;-68
2022/06/02 02:45:32;;;;;;;2.43;2.00;;;10.50;94.60;;;;;;4194184;28;20281;-69
2022/06/02 02:47:52;;;;;;;3.33;2.20;;;10.50;94.40;;;;;;4195032;28;20244;-68
2022/06/02 02:50:11;;;;;;;2.73;1.90;;;10.50;93.90;;;;;;4195089;28;20637;-68
2022/06/02 02:52:18;;;;;;;3.30;2.17;;;10.50;93.90;;;;;;4194344;28;20171;-69
2022/06/02 02:54:49;;;;;;;1.97;1.60;;;10.50;93.60;;;;;;4194369;28;20209;-71
2022/06/02 02:57:12;;;;;;;2.63;1.57;;;10.40;93.50;;;;;;4193492;28;20218;-68
2022/06/02 02:59:30;;;;;;;2.00;1.80;;;10.40;93.50;;;;;;4194183;28;20211;-70
2022/06/02 03:01:51;;;;;;;3.17;2.00;;;10.40;93.40;;;;;;4193965;28;20609;-69
2022/06/02 03:04:09;;;;;;;3.97;1.70;;;10.30;93.40;;;;;;4193958;28;20191;-69
2022/06/02 03:06:28;;;;;;;2.13;1.40;;;10.30;93.40;;;;;;4193466;28;20301;-68
2022/06/02 03:08:51;;;;;;;1.70;1.60;;;10.30;93.20;;;;;;4193779;28;20228;-69
2022/06/02 03:10:57;;;;;;;2.10;1.40;;;10.30;93.20;;;;;;4193944;28;20179;-70
2022/06/02 03:13:35;;;;;;;2.60;1.50;;;10.20;93.10;;;;;;4193584;28;20207;-69
2022/06/02 03:16:01;;;;;;;3.20;1.70;;;10.20;92.80;;;;;;4193430;28;20196;-68
2022/06/02 03:18:29;;;;;;;1.63;1.53;;;10.10;92.70;;;;;;4193729;28;20172;-69
2022/06/02 03:21:07;;;;;;;1.60;1.50;;;10.10;92.30;;;;;;4194101;28;20199;-68
2022/06/02 03:23:32;;;;;;;2.27;1.87;;;10.00;92.40;;;;;;4194659;28;20191;-68
2022/06/02 03:25:43;;;;;;;2.43;1.53;;;9.90;92.70;;;;;;4194180;28;20186;-68
2022/06/02 03:27:44;;;;;;;2.27;1.50;;;9.80;92.70;;;;;;4194934;28;20260;-68
2022/06/02 03:30:00;;;;;;;3.63;1.93;;;9.80;92.50;;;;;;4194932;28;20211;-68
2022/06/02 03:32:26;;;;;;;1.60;1.50;;;9.80;92.30;;;;;;4194668;28;20162;-68
2022/06/02 03:34:59;;;;;;;1.83;1.50;;;9.70;92.30;;;;;;4194674;28;20787;-68
2022/06/02 03:37:20;;;;;;;3.43;1.60;;;9.70;92.40;;;;;;4194756;28;20189;-69
2022/06/02 03:39:48;;;;;;;4.13;1.23;;;9.70;92.90;;;;;;4194588;28;20193;-68
2022/06/02 03:42:09;;;;;;;1.50;1.40;;;9.70;92.10;;;;;;4193743;28;20277;-68
2022/06/02 03:44:24;;;;;;;2.03;1.40;;;9.60;92.30;;;;;;4194322;28;20585;-69
2022/06/02 03:46:48;;;;;;;2.00;1.57;;;9.50;92.80;;;;;;4193966;28;20227;-69
2022/06/02 03:48:57;;;;;;;1.67;1.43;;;9.40;92.90;;;;;;4174773;28;20185;-69
2022/06/02 03:51:16;;;;;;;2.20;1.67;;;9.40;93.00;;;;;;4194432;28;20215;-68
2022/06/02 03:53:45;;;;;;;1.80;1.50;;;9.40;93.00;;;;;;4196165;28;20194;-69
2022/06/02 03:56:13;;;;;;;1.53;1.43;;;9.40;93.00;;;;;;4195525;28;20199;-69
2022/06/02 03:58:32;;;;;;;1.53;1.43;;;9.30;93.00;;;;;;4196143;28;20626;-69
2022/06/02 04:00:49;;;;;;;2.13;1.30;;;9.30;93.10;;;;;;4195952;28;20550;-68
2022/06/02 04:02:59;;;;;;;3.20;1.50;;;9.30;92.90;;;;;;4196353;28;20968;-69
2022/06/02 04:05:34;;;;;;;2.87;1.43;;;9.20;93.20;;;;;;4195872;28;20177;-68
2022/06/02 04:08:01;;;;;;;2.90;1.50;;;9.20;93.30;;;;;;4196132;28;20165;-68
2022/06/02 04:10:13;;;;;;;2.73;1.50;;;9.10;93.30;;;;;;4196192;28;20175;-69
2022/06/02 04:15:11;;;;;;;1.57;1.47;;;9.10;93.30;;;;;;4199254;28;20175;-68
2022/06/02 04:17:26;;;;;;;2.53;1.60;;;9.10;93.30;;;;;;4198662;28;20167;-69
2022/06/02 04:23:02;;;;;;;1.60;1.40;;;9.10;93.40;;;;;;4198938;28;20170;-68
2022/06/02 04:25:21;;;;;;;2.93;1.40;;;9.10;93.50;;;;;;4198564;28;20433;-68
2022/06/02 04:27:44;;;;;;;1.53;1.43;;;9.10;93.50;;;;;;4198564;28;20212;-68
2022/06/02 04:30:01;;;;;;;1.63;1.53;;;9.10;93.40;;;;;;4199229;28;20400;-68
2022/06/02 04:32:19;;;;;;;2.60;1.77;;;9.20;93.60;;;;;;4199341;28;20207;-68
2022/06/02 04:34:37;;;;;;;2.07;1.60;;;9.20;93.50;;;;;;4199704;28;20195;-69
2022/06/02 04:36:54;;;;;;;1.70;1.60;;;9.20;93.40;;;;;;4198353;28;20164;-68
2022/06/02 04:39:20;;;;;;;3.53;1.60;;;9.20;93.60;;;;;;4198612;28;20933;-68
2022/06/02 04:41:35;;;;;;;2.33;1.50;;;9.20;93.70;;;;;;4198724;28;20215;-68
2022/06/02 04:43:52;;;;;;;1.57;1.47;;;9.30;93.60;;;;;;4199472;28;20225;-68
2022/06/02 04:46:06;;;;;;;1.50;1.40;;;9.20;93.40;;;;;;4198443;28;20841;-68
2022/06/02 04:48:16;;;;;;;2.43;1.70;;;9.20;93.80;;;;;;4199186;28;20205;-68
2022/06/02 04:50:55;;;;;;;2.30;1.43;;;9.30;93.80;;;;;;4198860;28;20653;-69
2022/06/02 04:53:22;;;;;;;2.03;1.40;;;9.30;93.60;;;;;;4190182;28;20743;-68
2022/06/02 04:55:52;;;;;;;1.50;1.40;;;9.40;93.30;;;;;;4198113;28;20156;-68
2022/06/02 04:58:00;;;;;;;2.87;1.60;;;9.40;93.40;;;;;;4197101;28;20717;-68
2022/06/02 05:00:07;;;;;;;5.43;1.80;;;9.40;93.40;;;;;;4196593;28;20179;-68
2022/06/02 05:02:23;;;;;;;3.37;1.83;;;9.60;93.40;;;;;;4196898;28;20175;-68
2022/06/02 05:04:47;;;;;;;2.53;1.67;;;9.70;93.10;;;;;;4196792;28;20667;-68
2022/06/02 05:06:48;;;;;;;2.47;1.83;;;9.70;92.60;;;;;;4196123;28;20207;-68
2022/06/02 05:09:10;;;;;;;2.33;1.80;;;9.80;92.70;;;;;;4196539;28;20258;-68
2022/06/02 05:11:13;;;;;;;2.90;1.70;;;9.90;92.60;;;;;;4196393;28;20183;-68
2022/06/02 05:13:43;;;;;;;2.10;1.90;;;10.10;92.50;;;;;;4196680;28;20199;-68
2022/06/02 05:16:13;;;;;;;5.07;2.40;;;10.40;91.50;;;;;;4196001;28;20219;-68
2022/06/02 05:18:37;;;;;;;2.87;1.87;;;10.50;91.00;;;;;;4196584;28;20608;-68
2022/06/02 05:20:59;;;;;;;2.87;1.53;;;10.90;90.70;;;;;;4196312;28;20191;-68
2022/06/02 05:23:06;;;;;;;2.50;1.73;;;11.00;90.30;;;;;;4195939;28;20196;-69
2022/06/02 05:25:17;;;;;;;1.70;1.60;;;11.00;90.40;;;;;;4195815;28;20609;-69
2022/06/02 05:27:55;;;;;;;2.33;1.50;;;11.10;87.10;;;;;;4196116;28;20552;-68
2022/06/02 05:30:08;;;;;;;2.47;1.40;;;11.40;81.60;;;;;;4196598;28;20180;-69
2022/06/02 05:32:30;;;;;;;2.63;1.50;;;11.50;82.30;;;;;;4196302;28;20179;-69
2022/06/02 05:35:04;;;;;;;1.70;1.57;;;11.50;83.30;;;;;;4196076;28;20343;-68
2022/06/02 05:37:04;;;;;;;2.27;1.37;;;11.50;85.30;;;;;;4196028;28;20168;-68
2022/06/02 05:39:16;;;;;;;1.73;1.40;;;11.80;80.20;;;;;;4196146;28;20658;-68
2022/06/02 05:41:34;;;;;;;3.50;1.40;;;12.00;79.40;;;;;;4195835;28;20175;-68
2022/06/02 05:43:43;;;;;;;1.30;1.20;;;12.10;80.80;;;;;;4196522;28;20199;-68
2022/06/02 05:46:02;;;;;;;1.40;1.30;;;12.40;77.90;;;;;;4195308;28;20250;-69
2022/06/02 05:48:20;;;;;;;1.37;1.27;;;12.30;79.50;;;;;;4195957;28;20183;-69
2022/06/02 05:50:50;;;;;;;5.20;1.30;;;12.30;81.90;;;;;;4196042;28;20643;-69
2022/06/02 05:53:01;;;;;;;1.90;1.70;;;12.50;79.40;;;;;;4195905;28;20266;-69
2022/06/02 05:55:39;;;;;;;3.17;1.50;;;12.70;74.00;;;;;;4195849;28;20248;-69
2022/06/02 05:57:45;;;;;;;1.30;1.20;;;12.60;74.60;;;;;;4195773;28;20187;-69
2022/06/02 06:00:11;;;;;;;1.60;1.20;;;12.70;72.90;;;;;;4195929;28;20198;-68
2022/06/02 06:02:33;;;;;;;5.00;1.33;;;12.90;72.30;;;;;;4196084;28;20673;-68
2022/06/02 06:05:01;;;;;;;1.43;1.33;;;13.00;71.00;;;;;;4195598;28;20234;-68
2022/06/02 06:07:12;;;;;;;2.63;1.50;;;12.80;71.80;;;;;;4195229;28;20663;-68
2022/06/02 06:09:22;;;;;;;1.43;1.33;;;12.90;72.30;;;;;;4195564;28;20510;-68
2022/06/02 06:11:47;;;;;;;3.10;1.40;;;12.60;73.60;;;;;;4195621;28;20528;-69
2022/06/02 06:14:19;;;;;;;3.10;1.60;;;12.70;70.80;;;;;;4195815;28;20262;-68
2022/06/02 06:16:27;;;;;;;2.33;1.60;;;12.40;72.30;;;;;;4195355;28;20190;-68
2022/06/02 06:18:34;;;;;;;1.30;1.20;;;12.50;71.60;;;;;;4195385;28;20171;-68
2022/06/02 06:21:08;;;;;;;1.63;1.50;;;12.60;71.30;;;;;;4195250;28;20200;-68
2022/06/02 06:23:33;;;;;;;2.20;1.53;;;12.60;72.90;;;;;;4195149;28;20264;-68
2022/06/02 06:26:11;;;;;;;1.53;1.43;;;13.00;70.00;;;;;;4194463;28;20183;-68
2022/06/02 06:28:15;;;;;;;2.80;1.63;;;13.30;68.20;;;;;;4195082;28;20369;-68
2022/06/02 06:30:54;;;;;;;2.70;1.50;;;13.20;68.50;;;;;;4195070;28;20175;-68
2022/06/02 06:33:13;;;;;;;1.60;1.50;;;13.40;68.70;;;;;;4194993;28;20210;-69
2022/06/02 06:35:22;;;;;;;1.60;1.50;;;13.70;66.50;;;;;;4194746;28;20581;-68
2022/06/02 06:37:39;;;;;;;3.80;1.80;;;13.80;65.10;;;;;;4195003;28;20164;-68
2022/06/02 06:40:06;;;;;;;1.97;1.80;;;13.60;67.80;;;;;;4195201;28;20176;-68
2022/06/02 06:42:07;;;;;;;1.50;1.40;;;13.50;68.00;;;;;;4194492;28;20172;-68
2022/06/02 06:44:26;;;;;;;2.80;1.43;;;13.50;67.40;;;;;;4193666;28;20234;-69
2022/06/02 06:47:08;;;;;;;2.40;1.50;;;13.40;67.40;;;;;;4177821;28;20222;-69
2022/06/02 06:49:24;;;;;;;1.70;1.60;;;13.40;67.80;;;;;;4178087;28;20188;-68
2022/06/02 06:51:54;;;;;;;1.40;1.30;;;13.30;67.80;;;;;;4178393;28;20168;-68
2022/06/02 06:54:06;;;;;;;1.60;1.50;;;13.50;66.90;;;;;;4178776;28;20761;-68
2022/06/02 06:56:23;;;;;;;3.33;2.10;;;13.60;66.40;;;;;;4178214;28;20196;-68
2022/06/02 06:58:53;;;;;;;1.80;1.43;;;13.40;67.00;;;;;;4178335;28;20172;-68
2022/06/02 07:01:18;;;;;;;2.80;1.67;;;13.20;68.70;;;;;;4178378;28;20710;-68
2022/06/02 07:03:56;;;;;;;1.57;1.47;;;13.30;69.10;;;;;;4178164;28;20801;-69
2022/06/02 07:06:15;;;;;;;2.80;1.60;;;13.30;69.50;;;;;;4177571;28;20318;-68
2022/06/02 07:08:24;;;;;;;1.60;1.40;;;13.40;69.00;;;;;;4178523;28;20168;-70
2022/06/02 07:10:41;;;;;;;1.60;1.50;;;13.40;68.40;;;;;;4178437;28;20669;-72
2022/06/02 07:12:51;;;;;;;3.07;1.47;;;13.80;67.70;;;;;;4178093;28;20658;-72
2022/06/02 07:15:04;;;;;;;1.53;1.43;;;13.80;68.90;;;;;;4177770;28;20175;-72
2022/06/02 07:17:14;;;;;;;4.60;1.97;;;13.60;68.80;;;;;;4177363;28;20285;-71
2022/06/02 07:19:36;;;;;;;3.30;1.67;;;13.50;68.30;;;;;;4178019;28;20249;-72
2022/06/02 07:22:03;;;;;;;4.70;2.13;;;13.60;68.20;;;;;;4178020;28;20215;-72
2022/06/02 07:24:27;;;;;;;2.70;1.40;;;13.60;68.60;;;;;;4178226;28;20698;-72
2022/06/02 07:26:35;;;;;;;1.53;1.40;;;13.70;67.10;;;;;;4177314;28;20574;-72
2022/06/02 07:29:17;;;;;;;1.87;1.60;;;14.00;67.70;;;;;;4178138;28;20187;-72
2022/06/02 07:31:55;;;;;;;1.47;1.37;;;14.20;68.50;;;;;;4165509;28;20207;-72
2022/06/02 07:34:18;;;;;;;2.73;1.63;;;14.40;64.10;;;;;;4178223;28;20207;-72
2022/06/02 07:36:41;;;;;;;2.37;1.30;;;14.40;63.50;;;;;;4177340;28;20651;-72
2022/06/02 07:39:13;;;;;;;1.50;1.40;;;14.60;63.30;;;;;;4178042;28;20176;-71
2022/06/02 07:41:39;;;;;;;2.60;1.40;;;14.60;63.20;;;;;;4178070;28;20180;-72
2022/06/02 07:43:43;;;;;;;2.20;1.30;;;14.90;61.60;;;;;;4178079;28;20231;-72
2022/06/02 07:45:58;;;;;;;2.83;1.30;;;15.00;60.30;;;;;;4177271;28;20204;-72
2022/06/02 07:48:02;;;;;;;2.03;1.47;;;15.00;60.00;;;;;;4180459;28;20251;-72
2022/06/02 07:50:22;;;;;;;1.57;1.30;;;14.90;59.10;;;;;;4181055;28;20631;-72
2022/06/02 07:52:44;;;;;;;1.67;1.50;;;14.90;60.10;;;;;;4197417;28;20815;-72
2022/06/02 07:55:01;;;;;;;2.07;1.40;;;15.20;58.90;;;;;;4197795;28;20184;-72
2022/06/02 07:57:52;;;;;;;1.70;1.60;;;15.30;58.40;;;;;;4197104;28;20258;-72
2022/06/02 08:00:22;;;;;;;1.40;1.23;;;15.20;58.50;;;;;;4174122;28;20242;-72
2022/06/02 08:02:47;;;;;;;2.70;1.30;;;15.70;60.20;;;;;;4197266;28;20562;-72
2022/06/02 08:04:53;;;;;;;2.00;1.60;;;15.80;58.90;;;;;;4197523;28;20172;-72
2022/06/02 08:07:23;;;;;;;2.20;1.27;;;15.70;56.40;;;;;;4196762;28;20200;-72
2022/06/02 08:09:49;;;;;;;1.60;1.50;;;15.80;57.30;;;;;;4191789;28;20203;-72
2022/06/02 08:12:00;;;;;;;2.13;2.03;;;16.10;58.20;;;;;;4197537;28;20192;-72
2022/06/02 08:14:26;;;;;;;1.90;1.27;;;16.20;57.80;;;;;;4197583;28;20199;-72
2022/06/02 08:16:59;;;;;;;1.87;1.67;;;16.20;55.40;;;;;;4177963;28;20267;-72
2022/06/02 08:19:11;;;;;;;2.53;1.70;;;16.30;56.90;;;;;;4189223;28;20207;-72
2022/06/02 08:21:25;;;;;;;3.47;1.60;;;16.40;55.10;;;;;;4197220;28;20230;-72
2022/06/02 08:23:42;;;;;;;2.23;1.70;;;16.60;54.30;;;;;;4197930;28;20211;-72
2022/06/02 08:25:57;;;;;;;1.70;1.60;;;16.70;55.20;;;;;;4196762;28;20221;-72
2022/06/02 08:28:31;;;;;;;3.33;1.63;;;16.30;55.70;;;;;;4197321;28;20175;-72
2022/06/02 08:30:44;;;;;;;1.70;1.60;;;16.40;55.50;;;;;;4197121;28;20175;-71
2022/06/02 08:32:47;;;;;;;3.77;1.80;;;16.30;55.80;;;;;;4197417;28;20541;-72
2022/06/02 08:34:53;;;;;;;2.70;1.93;;;16.80;55.50;;;;;;4197060;28;20182;-71
2022/06/02 08:37:16;;;;;;;4.90;2.27;;;16.90;54.40;;;;;;4196526;28;20190;-72
2022/06/02 08:39:38;;;;;;;2.97;1.50;;;17.20;55.20;;;;;;4197211;28;20168;-72
2022/06/02 08:42:03;;;;;;;2.50;2.00;;;17.10;54.30;;;;;;4196846;28;20188;-72
2022/06/02 08:44:23;;;;;;;4.07;1.90;;;17.30;54.30;;;;;;4196348;28;20744;-72
2022/06/02 08:46:43;;;;;;;4.93;1.90;;;17.40;53.80;;;;;;4179591;28;20207;-72
2022/06/02 08:49:28;;;;;;;1.97;1.63;;;17.50;54.70;;;;;;4180537;28;20222;-72
2022/06/02 08:51:58;;;;;;;4.23;3.47;;;17.60;55.60;;;;;;4180327;28;20203;-72
2022/06/02 08:54:29;;;;;;;2.87;2.07;;;17.70;53.80;;;;;;4180230;28;20683;-72
2022/06/02 08:56:59;;;;;;;1.93;1.73;;;17.10;55.00;;;;;;4179482;28;20183;-72
2022/06/02 08:59:08;;;;;;;2.53;1.37;;;17.20;54.70;;;;;;4180142;28;20180;-72
2022/06/02 09:01:32;;;;;;;3.23;1.90;;;17.60;55.80;;;;;;4180157;28;20254;-72
2022/06/02 09:04:24;;;;;;;1.93;1.70;;;17.80;56.20;;;;;;4180284;28;20196;-72
2022/06/02 09:06:42;;;;;;;2.57;2.23;;;18.00;53.70;;;;;;4179562;28;20204;-72
2022/06/02 09:08:58;;;;;;;2.20;1.70;;;18.10;52.70;;;;;;4180265;28;20172;-72
2022/06/02 09:11:32;;;;;;;2.97;2.10;;;18.10;53.30;;;;;;4180316;28;20175;-72
2022/06/02 09:13:44;;;;;;;2.17;1.97;;;18.00;54.30;;;;;;4180008;28;20196;-72
2022/06/02 09:16:13;;;;;;;3.27;2.30;;;17.90;54.30;;;;;;4179415;28;20164;-72
2022/06/02 09:18:17;;;;;;;3.40;2.23;;;18.00;53.50;;;;;;4179823;28;20662;-72
2022/06/02 09:20:37;;;;;;;3.13;2.10;;;18.20;56.60;;;;;;4179669;28;20196;-72
2022/06/02 09:22:55;;;;;;;10.90;2.60;;;18.20;54.40;;;;;;4179932;28;20175;-72
2022/06/02 09:25:21;;;;;;;4.00;2.30;;;18.40;52.50;;;;;;4179681;28;20199;-72
2022/06/02 09:27:58;;;;;;;2.93;2.10;;;18.40;55.20;;;;;;4179654;28;20212;-72
2022/06/02 09:30:08;;;;;;;2.73;2.13;;;18.70;52.10;;;;;;4179645;28;20172;-71
2022/06/02 09:32:33;;;;;;;2.53;1.93;;;18.90;52.10;;;;;;4179669;28;20585;-71
2022/06/02 09:34:48;;;;;;;2.37;2.17;;;19.00;52.70;;;;;;4179566;28;20204;-71
2022/06/02 09:37:07;;;;;;;3.00;1.97;;;18.90;50.70;;;;;;4179338;28;20184;-71
2022/06/02 09:39:26;;;;;;;2.07;1.87;;;19.10;50.90;;;;;;4179724;28;20631;-71
2022/06/02 09:41:50;;;;;;;3.03;1.80;;;19.30;49.60;;;;;;4179613;28;20188;-71
2022/06/02 09:44:15;;;;;;;1.80;1.60;;;19.20;51.40;;;;;;4179635;28;20683;-71
2022/06/02 09:46:32;;;;;;;3.20;1.93;;;19.30;50.40;;;;;;4178909;28;20208;-71
2022/06/02 09:48:56;;;;;;;3.50;1.60;;;19.40;50.70;;;;;;4180181;28;20176;-71
2022/06/02 09:51:24;;;;;;;3.47;1.70;;;19.70;49.40;;;;;;4195824;28;20249;-71
2022/06/02 09:53:45;;;;;;;2.10;1.90;;;19.70;48.50;;;;;;4195756;28;20188;-72
2022/06/02 09:56:10;;;;;;;3.13;2.17;;;19.50;49.30;;;;;;4195169;28;20673;-71
2022/06/02 09:58:54;;;;;;;2.33;1.87;;;20.00;50.00;;;;;;4195817;28;20176;-71
2022/06/02 10:01:02;;;;;;;2.20;1.83;;;20.60;47.70;;;;;;4196052;28;20172;-71
2022/06/02 10:03:22;;;;;;;2.37;2.10;;;20.70;46.40;;;;;;4195656;28;20209;-71
2022/06/02 10:05:33;;;;;;;3.43;1.93;;;20.90;45.30;;;;;;4195531;28;20222;-71
2022/06/02 10:08:05;;;;;;;4.00;1.93;;;21.20;45.00;;;;;;4195383;28;20191;-71
2022/06/02 10:10:26;;;;;;;3.87;2.20;;;21.30;47.30;;;;;;4195137;28;20199;-70
2022/06/02 10:12:58;;;;;;;2.53;2.30;;;21.60;46.20;;;;;;4183991;28;20538;-71
2022/06/02 10:15:36;;;;;;;2.50;1.97;;;21.50;44.00;;;;;;4195757;28;20756;-71
2022/06/02 10:17:56;;;;;;;4.93;2.33;;;22.10;43.30;;;;;;4195302;28;20203;-71
2022/06/02 10:20:10;;;;;;;2.33;2.13;;;22.50;44.30;;;;;;4195358;28;20195;-71
2022/06/02 10:22:35;;;;;;;2.57;2.13;;;22.50;43.40;;;;;;4195419;28;20666;-71
2022/06/02 10:24:58;;;;;;;3.13;2.30;;;22.90;42.70;;;;;;4195411;28;20211;-71
2022/06/02 10:27:21;;;;;;;3.40;2.83;;;22.90;42.90;;;;;;4194803;28;20200;-70
2022/06/02 10:29:43;;;;;;;2.20;2.00;;;22.30;42.10;;;;;;4195213;28;20175;-70
2022/06/02 10:32:25;;;;;;;2.20;2.00;;;21.70;44.10;;;;;;4195348;28;20262;-70
2022/06/02 10:34:47;;;;;;;3.83;2.73;;;21.90;44.30;;;;;;4195200;28;20195;-70
2022/06/02 10:37:13;;;;;;;2.77;2.30;;;21.30;43.80;;;;;;4194951;28;20182;-70
2022/06/02 10:39:50;;;;;;;3.17;2.67;;;21.30;46.50;;;;;;4186417;28;20972;-70
2022/06/02 10:42:19;;;;;;;3.90;2.80;;;22.20;43.60;;;;;;4195260;28;20183;-70
2022/06/02 10:44:38;;;;;;;3.43;2.60;;;23.70;40.40;;;;;;4194886;28;20225;-71
2022/06/02 10:46:41;;;;;;;3.20;2.80;;;25.10;37.70;;;;;;4193043;28;20191;-70
2022/06/02 10:49:20;;;;;;;4.13;2.53;;;24.90;37.70;;;;;;4195098;28;20183;-70
2022/06/02 10:51:59;;;;;;;3.00;2.30;;;26.30;35.80;;;;;;4186036;28;20190;-70
2022/06/02 10:54:21;;;;;;;2.77;2.20;;;26.90;33.80;;;;;;4195357;28;20195;-70
2022/06/02 10:57:06;;;;;;;3.00;2.80;;;27.00;33.60;;;;;;4194417;28;20213;-70
2022/06/02 10:59:31;;;;;;;3.13;2.67;;;26.00;34.20;;;;;;4131519;28;20613;-70
2022/06/02 11:01:41;;;;;;;2.80;2.50;;;27.70;33.60;;;;;;4195014;28;20176;-69
2022/06/02 11:04:26;;;;;;;2.60;2.40;;;28.10;30.90;;;;;;4195177;28;20264;-69
2022/06/02 11:06:54;;;;;;;2.90;2.70;;;29.30;30.40;;;;;;4194225;28;20615;-69
2022/06/02 11:09:04;;;;;;;3.20;2.90;;;29.00;29.10;;;;;;4194912;28;20203;-69
2022/06/02 11:11:33;;;;;;;2.63;2.30;;;28.10;30.00;;;;;;4194837;28;20168;-69
2022/06/02 11:14:01;;;;;;;4.27;2.40;;;27.30;31.80;;;;;;4194842;28;20195;-68
2022/06/02 11:16:26;;;;;;;3.10;2.40;;;26.80;31.70;;;;;;4194435;28;20170;-69
2022/06/02 11:18:50;;;;;;;2.40;2.03;;;26.70;32.00;;;;;;4194768;28;20164;-69
2022/06/02 11:21:23;;;;;;;3.93;2.20;;;26.00;35.00;;;;;;4194873;28;20183;-69
2022/06/02 11:23:40;;;;;;;5.83;2.83;;;25.90;35.20;;;;;;4159855;28;20562;-68
2022/06/02 11:26:01;;;;;;;5.33;2.40;;;24.70;35.30;;;;;;4197802;28;20194;-68
2022/06/02 11:28:20;;;;;;;3.97;2.43;;;24.30;36.00;;;;;;4184002;28;20198;-68
2022/06/02 11:30:50;;;;;;;3.30;2.17;;;23.80;37.20;;;;;;4198252;28;20269;-68
2022/06/02 11:32:59;;;;;;;2.97;2.17;;;23.10;39.20;;;;;;4198255;28;20167;-69
2022/06/02 11:35:21;;;;;;;3.30;2.00;;;23.20;39.40;;;;;;4198224;28;20187;-68
2022/06/02 11:37:25;;;;;;;3.17;2.03;;;23.60;38.00;;;;;;4198098;28;20643;-68
2022/06/02 11:39:47;;;;;;;3.03;2.47;;;22.90;41.00;;;;;;4198114;28;20249;-68
2022/06/02 11:41:57;;;;;;;2.43;2.00;;;22.90;40.10;;;;;;4198056;28;20172;-68
2022/06/02 11:44:22;;;;;;;2.40;2.20;;;23.10;40.60;;;;;;4197945;28;20203;-68
2022/06/02 11:46:34;;;;;;;2.53;2.30;;;22.70;40.00;;;;;;4197214;28;20229;-68
2022/06/02 11:48:58;;;;;;;4.10;2.00;;;22.50;40.10;;;;;;4197749;28;20180;-67
2022/06/02 11:51:10;;;;;;;2.67;2.07;;;22.50;42.70;;;;;;4158864;28;20191;-68
2022/06/02 11:53:32;;;;;;;4.53;2.90;;;22.40;42.20;;;;;;4197686;28;20298;-68
2022/06/02 11:56:01;;;;;;;2.37;2.17;;;22.30;42.60;;;;;;4196748;28;20221;-68
2022/06/02 11:58:39;;;;;;;2.40;2.20;;;22.50;41.90;;;;;;4197624;28;20550;-68
2022/06/02 12:01:00;;;;;;;3.83;2.40;;;22.50;41.60;;;;;;4195974;28;20180;-68
2022/06/02 12:03:24;;;;;;;2.50;2.10;;;22.20;43.30;;;;;;4197574;28;20215;-68
2022/06/02 12:05:53;;;;;;;3.93;1.97;;;21.90;43.90;;;;;;4196845;28;20576;-68
2022/06/02 12:08:38;;;;;;;4.17;2.17;;;21.60;45.20;;;;;;4197372;28;20175;-68
2022/06/02 12:10:44;;;;;;;2.60;2.30;;;21.40;45.60;;;;;;4197646;28;20160;-68
2022/06/02 12:13:07;;;;;;;2.27;2.00;;;21.40;44.50;;;;;;4197303;28;20160;-68
2022/06/02 12:15:47;;;;;;;3.40;2.00;;;21.70;44.60;;;;;;4197290;28;20172;-68
2022/06/02 12:18:07;;;;;;;3.67;1.90;;;21.90;44.40;;;;;;4197246;28;20191;-68
2022/06/02 12:20:22;;;;;;;3.43;2.17;;;21.60;47.40;;;;;;4197108;28;20199;-68
2022/06/02 12:22:40;;;;;;;2.37;2.10;;;21.50;48.40;;;;;;4197236;28;20209;-68
2022/06/02 12:24:56;;;;;;;2.97;2.00;;;21.10;48.80;;;;;;4197487;28;20195;-68